createdAt,value
2019-04-23T00:00:26.369Z,40.50
2019-04-23T00:05:41.735Z,40.80
2019-04-23T00:08:07.388Z,40.50
2019-04-23T00:10:30.286Z,40.70
2019-04-23T00:13:01.110Z,40.90
2019-04-23T00:16:00.456Z,40.90
2019-04-23T00:18:22.270Z,41.20
2019-04-23T00:20:57.214Z,41.30
2019-04-23T00:23:26.787Z,41.80
2019-04-23T00:26:19.667Z,42.20
2019-04-23T00:28:35.365Z,41.90
2019-04-23T00:33:29.678Z,41.90
2019-04-23T00:35:55.072Z,42.80
2019-04-23T00:38:33.658Z,42.40
2019-04-23T00:41:01.674Z,42.50
2019-04-23T00:43:27.258Z,42.60
2019-04-23T00:45:55.016Z,42.30
2019-04-23T00:51:09.240Z,42.90
2019-04-23T00:53:30.003Z,42.90
2019-04-23T00:56:20.650Z,43.20
2019-04-23T00:58:33.716Z,43.80
2019-04-23T01:00:57.878Z,43.20
2019-04-23T01:03:25.216Z,43.60
2019-04-23T01:05:58.868Z,43.40
2019-04-23T01:08:29.677Z,43.50
2019-04-23T01:11:20.632Z,43.90
2019-04-23T01:18:49.082Z,44.30
2019-04-23T01:20:54.616Z,44.70
2019-04-23T01:23:36.452Z,44.90
2019-04-23T01:26:16.413Z,45.00
2019-04-23T01:28:55.895Z,45.00
2019-04-23T01:31:28.565Z,44.90
2019-04-23T01:39:01.786Z,45.80
2019-04-23T01:41:30.400Z,45.90
2019-04-23T01:43:50.315Z,46.20
2019-04-23T01:46:28.705Z,46.80
2019-04-23T01:49:01.632Z,46.90
2019-04-23T01:51:27.804Z,46.90
2019-04-23T01:53:58.762Z,46.40
2019-04-23T01:58:59.231Z,47.10
2019-04-23T02:01:47.504Z,47.20
2019-04-23T02:04:03.638Z,47.80
2019-04-23T02:06:28.161Z,47.90
2019-04-23T02:09:00.584Z,47.80
2019-04-23T02:11:47.189Z,47.90
2019-04-23T02:14:03.219Z,47.80
2019-04-23T02:16:30.131Z,47.80
2019-04-23T02:19:03.401Z,48.80
2019-04-23T02:21:36.603Z,48.50
2019-04-23T02:24:12.086Z,48.20
2019-04-23T02:26:43.900Z,48.70
2019-04-23T02:29:28.718Z,48.90
2019-04-23T02:31:57.691Z,49.50
2019-04-23T02:34:31.016Z,49.20
2019-04-23T02:39:22.499Z,50.00
2019-04-23T02:44:31.945Z,50.30
2019-04-23T02:47:00.098Z,50.60
2019-04-23T02:49:27.159Z,51.00
2019-04-23T02:51:59.399Z,50.70
2019-04-23T02:54:37.455Z,51.60
2019-04-23T02:56:50.995Z,51.40
2019-04-23T02:59:28.527Z,51.50
2019-04-23T03:02:07.532Z,52.20
2019-04-23T03:04:33.811Z,52.60
2019-04-23T03:07:16.112Z,52.90
2019-04-23T03:09:36.413Z,53.60
2019-04-23T03:14:25.036Z,54.60
2019-04-23T03:22:01.688Z,55.60
2019-04-23T03:24:47.737Z,56.50
2019-04-23T03:27:19.321Z,57.80
2019-04-23T03:29:40.431Z,57.30
2019-04-23T03:33:12.569Z,58.60
2019-04-23T03:37:19.732Z,59.30
2019-04-23T03:47:13.898Z,62.50
2019-04-23T03:54:46.517Z,65.40
2019-04-23T03:59:47.100Z,69.40
2019-04-23T04:04:39.051Z,72.80
2019-04-23T04:07:22.641Z,73.80
2019-04-23T04:09:47.746Z,74.70
2019-04-23T04:14:44.807Z,78.90
2019-04-23T04:25:00.822Z,83.60
2019-04-23T04:27:41.497Z,84.80
2019-04-23T04:30:01.040Z,86.90
2019-04-23T04:32:11.868Z,88.00
2019-04-23T04:37:37.837Z,90.60
2019-04-23T04:44:50.053Z,92.80
2019-04-23T04:47:25.848Z,93.50
2019-04-23T04:50:02.407Z,94.60
2019-04-23T04:52:41.242Z,94.80
2019-04-23T04:54:37.606Z,95.10
2019-04-23T05:00:05.704Z,96.70
2019-04-23T05:04:57.828Z,97.00
2019-04-23T05:07:34.082Z,97.60
2019-04-23T05:15:02.731Z,99.70
2019-04-23T05:17:24.418Z,99.30
2019-04-23T05:19:51.189Z,99.70
2019-04-23T05:22:44.229Z,99.70
2019-04-23T05:24:48.343Z,99.90
2019-04-23T05:27:17.577Z,99.90
2019-04-23T05:29:58.847Z,99.90
2019-04-23T05:32:19.404Z,99.90
2019-04-23T05:34:53.393Z,99.60
2019-04-23T05:37:28.276Z,99.90
2019-04-23T05:39:45.566Z,99.90
2019-04-23T05:42:20.105Z,99.90
2019-04-23T05:44:52.807Z,99.20
2019-04-23T05:47:23.232Z,99.90
2019-04-23T05:49:54.663Z,99.90
2019-04-23T05:52:24.472Z,99.90
2019-04-23T05:57:14.281Z,99.90
2019-04-23T05:59:47.807Z,99.90
2019-04-23T06:02:17.051Z,99.60
2019-04-23T06:04:49.641Z,99.70
2019-04-23T06:07:28.986Z,99.60
2019-04-23T06:09:52.066Z,99.70
2019-04-23T06:12:21.587Z,98.80
2019-04-23T06:14:55.529Z,99.50
2019-04-23T06:17:21.529Z,99.70
2019-04-23T06:19:58.602Z,99.10
2019-04-23T06:22:28.984Z,98.90
2019-04-23T06:25:01.364Z,98.90
2019-04-23T06:27:28.962Z,98.60
2019-04-23T06:30:15.059Z,98.60
2019-04-23T06:32:25.536Z,99.60
2019-04-23T06:34:53.138Z,99.90
2019-04-23T06:37:38.529Z,99.30
2019-04-23T06:42:23.458Z,99.60
2019-04-23T06:44:56.135Z,99.70
2019-04-23T06:47:24.811Z,99.00
2019-04-23T06:49:56.011Z,99.30
2019-04-23T06:52:27.481Z,97.00
2019-04-23T06:57:41.146Z,98.50
2019-04-23T07:00:02.417Z,98.80
2019-04-23T07:09:57.860Z,96.30
2019-04-23T07:12:38.817Z,96.90
2019-04-23T07:15:13.309Z,97.40
2019-04-23T07:17:26.656Z,96.50
2019-04-23T07:20:04.250Z,97.80
2019-04-23T07:22:32.275Z,97.00
2019-04-23T07:25:00.318Z,95.80
2019-04-23T07:27:39.373Z,95.50
2019-04-23T07:32:30.608Z,93.90
2019-04-23T07:37:57.126Z,94.20
2019-04-23T07:40:21.625Z,92.60
2019-04-23T07:43:03.454Z,91.00
2019-04-23T07:48:12.422Z,91.10
2019-04-23T07:53:13.293Z,90.30
2019-04-23T07:58:23.826Z,88.50
2019-04-23T08:00:45.157Z,88.50
2019-04-23T08:05:39.811Z,89.50
2019-04-23T08:08:14.721Z,90.20
2019-04-23T08:11:03.051Z,88.30
2019-04-23T08:13:21.447Z,84.90
2019-04-23T08:15:51.961Z,85.80
2019-04-23T08:18:18.040Z,84.70
2019-04-23T08:20:49.644Z,84.40
2019-04-23T08:23:16.504Z,82.50
2019-04-23T08:26:02.460Z,82.30
2019-04-23T08:28:46.156Z,83.20
2019-04-23T08:30:53.723Z,85.20
2019-04-23T08:33:19.405Z,82.10
2019-04-23T08:35:59.033Z,81.50
2019-04-23T08:38:26.665Z,83.40
2019-04-23T08:41:02.549Z,83.80
2019-04-23T08:45:52.505Z,79.70
2019-04-23T08:48:27.491Z,78.80
2019-04-23T08:51:03.527Z,78.70
2019-04-23T08:53:37.701Z,81.10
2019-04-23T08:55:53.935Z,77.00
2019-04-23T09:00:58.606Z,79.50
2019-04-23T09:08:45.824Z,76.90
2019-04-23T09:11:04.865Z,74.80
2019-04-23T09:16:13.653Z,71.70
2019-04-23T09:21:05.434Z,77.50
2019-04-23T09:28:41.944Z,70.70
2019-04-23T09:31:18.877Z,71.80
2019-04-23T09:36:27.644Z,72.40
2019-04-23T09:39:00.182Z,72.10
2019-04-23T09:41:51.521Z,70.90
2019-04-23T09:44:51.050Z,70.40
2019-04-23T09:49:20.128Z,69.90
2019-04-23T09:51:55.547Z,69.60
2019-04-23T09:54:18.579Z,67.80
2019-04-23T09:56:49.533Z,67.20
2019-04-23T09:59:23.495Z,65.00
2019-04-23T10:01:41.331Z,65.30
2019-04-23T10:04:06.049Z,66.80
2019-04-23T10:06:26.618Z,65.50
2019-04-23T10:08:56.219Z,66.80
2019-04-23T10:11:24.222Z,70.80
2019-04-23T10:13:53.390Z,66.20
2019-04-23T10:16:25.818Z,64.50
2019-04-23T10:18:55.168Z,66.10
2019-04-23T10:21:23.890Z,62.90
2019-04-23T10:23:55.076Z,65.10
2019-04-23T10:26:24.129Z,64.20
2019-04-23T10:28:55.974Z,64.10
2019-04-23T10:31:25.260Z,63.80
2019-04-23T10:33:53.768Z,64.20
2019-04-23T10:36:25.904Z,61.10
2019-04-23T10:39:00.542Z,61.30
2019-04-23T10:41:23.336Z,64.20
2019-04-23T10:43:58.577Z,61.20
2019-04-23T10:47:02.698Z,60.90
2019-04-23T10:54:43.304Z,63.40
2019-04-23T11:02:36.326Z,60.70
2019-04-23T11:04:54.118Z,62.30
2019-04-23T11:07:28.387Z,60.80
2019-04-23T11:09:59.576Z,59.40
2019-04-23T11:12:45.014Z,59.00
2019-04-23T11:15:24.117Z,59.00
2019-04-23T11:20:27.422Z,57.20
2019-04-23T11:22:48.263Z,58.20
2019-04-23T11:25:22.459Z,55.40
2019-04-23T11:27:42.923Z,55.70
2019-04-23T11:40:19.979Z,51.30
2019-04-23T11:42:50.211Z,47.80
2019-04-23T11:45:30.085Z,47.20
2019-04-23T11:51:10.434Z,45.80
2019-04-23T11:55:33.093Z,42.80
2019-04-23T12:00:31.491Z,40.80
2019-04-23T12:03:14.161Z,40.70
2019-04-23T12:08:39.944Z,40.50
2019-04-23T12:11:28.693Z,39.80
2019-04-23T12:13:41.363Z,39.40
2019-04-23T12:16:00.923Z,38.70
2019-04-23T12:18:43.308Z,38.10
2019-04-23T12:20:56.811Z,36.30
2019-04-23T12:23:43.533Z,37.60
2019-04-23T12:26:11.710Z,37.50
2019-04-23T12:28:38.041Z,35.80
2019-04-23T12:31:10.036Z,36.90
2019-04-23T12:33:47.231Z,37.50
2019-04-23T12:36:04.689Z,35.70
2019-04-23T12:38:30.128Z,35.90
2019-04-23T12:41:06.127Z,35.20
2019-04-23T12:43:41.849Z,34.60
2019-04-23T12:46:05.975Z,34.20
2019-04-23T12:48:50.836Z,33.80
2019-04-23T12:51:12.672Z,33.30
2019-04-23T12:53:37.888Z,32.80
2019-04-23T12:56:08.888Z,33.70
2019-04-23T12:58:29.412Z,32.60
2019-04-23T13:01:04.832Z,33.60
2019-04-23T13:03:39.262Z,33.50
2019-04-23T13:05:59.277Z,33.80
2019-04-23T13:11:07.983Z,34.10
2019-04-23T13:16:17.898Z,34.10
2019-04-23T13:21:30.134Z,33.30
2019-04-23T13:23:42.293Z,32.40
2019-04-23T13:26:06.119Z,32.90
2019-04-23T13:29:04.963Z,31.80
2019-04-23T13:31:12.589Z,32.50
2019-04-23T13:36:29.981Z,32.20
2019-04-23T13:38:58.444Z,31.80
2019-04-23T13:43:45.759Z,31.90
2019-04-23T13:46:33.115Z,32.40
2019-04-23T13:48:42.300Z,33.20
2019-04-23T13:51:21.212Z,31.80
2019-04-23T13:53:59.256Z,31.70
2019-04-23T13:56:24.520Z,31.40
2019-04-23T13:58:51.832Z,32.00
2019-04-23T14:04:07.811Z,31.70
2019-04-23T14:08:55.206Z,31.30
2019-04-23T14:11:23.610Z,31.40
2019-04-23T14:14:08.687Z,31.80
2019-04-23T14:21:28.662Z,31.20
2019-04-23T14:26:32.677Z,30.70
2019-04-23T14:28:56.905Z,31.50
2019-04-23T14:31:16.895Z,30.70
2019-04-23T14:34:00.104Z,31.40
2019-04-23T14:41:24.923Z,30.90
2019-04-23T14:48:56.735Z,30.90
2019-04-23T14:51:32.069Z,30.90
2019-04-23T14:53:52.168Z,30.60
2019-04-23T14:56:31.538Z,31.00
2019-04-23T14:59:02.815Z,31.00
2019-04-23T15:09:10.263Z,32.70
2019-04-23T15:11:38.805Z,32.10
2019-04-23T15:14:03.548Z,31.80
2019-04-23T15:16:31.747Z,31.70
2019-04-23T15:19:22.079Z,31.70
2019-04-23T15:24:17.556Z,31.20
2019-04-23T15:27:45.583Z,30.70
2019-04-23T15:28:45.517Z,31.00
2019-04-23T15:31:41.238Z,31.30
2019-04-23T15:34:20.919Z,31.30
2019-04-23T15:37:00.838Z,31.20
2019-04-23T15:44:10.742Z,31.80
2019-04-23T15:49:14.682Z,31.90
2019-04-23T15:51:48.033Z,31.40
2019-04-23T15:54:15.135Z,31.30
2019-04-23T15:56:41.476Z,31.10
2019-04-23T16:03:43.976Z,31.80
2019-04-23T16:06:15.703Z,32.10
2019-04-23T16:11:45.371Z,31.60
2019-04-23T16:16:45.317Z,31.20
2019-04-23T16:24:20.490Z,31.90
2019-04-23T16:26:47.415Z,32.00
2019-04-23T16:34:19.197Z,32.50
2019-04-23T16:36:43.802Z,34.20
2019-04-23T16:41:54.204Z,34.10
2019-04-23T16:44:24.183Z,35.10
2019-04-23T16:46:51.928Z,35.90
2019-04-23T16:49:19.184Z,36.50
2019-04-23T16:54:28.313Z,37.20
2019-04-23T16:59:18.470Z,38.70
2019-04-23T17:01:52.336Z,38.80
2019-04-23T17:04:24.321Z,38.50
2019-04-23T17:06:53.411Z,39.00
2019-04-23T17:09:19.727Z,38.90
2019-04-23T17:14:21.682Z,38.90
2019-04-23T17:16:42.140Z,39.20
2019-04-23T17:19:24.134Z,39.00
2019-04-23T17:21:59.731Z,39.60
2019-04-23T17:24:25.854Z,40.20
2019-04-23T17:26:53.957Z,39.20
2019-04-23T17:29:21.357Z,39.00
2019-04-23T17:31:45.211Z,40.00
2019-04-23T17:34:30.473Z,40.00
2019-04-23T17:39:25.356Z,40.10
2019-04-23T17:42:18.173Z,40.40
2019-04-23T17:44:54.608Z,41.00
2019-04-23T17:47:07.054Z,40.90
2019-04-23T17:49:35.137Z,41.30
2019-04-23T17:52:16.537Z,42.40
2019-04-23T17:57:10.810Z,42.50
2019-04-23T18:00:08.457Z,43.20
2019-04-23T18:04:57.168Z,43.90
2019-04-23T18:07:33.993Z,44.60
2019-04-23T18:09:58.510Z,45.10
2019-04-23T18:12:31.166Z,44.90
2019-04-23T18:14:52.226Z,44.80
2019-04-23T18:17:28.802Z,45.40
2019-04-23T18:19:58.376Z,45.60
2019-04-23T18:22:29.542Z,46.10
2019-04-23T18:27:48.408Z,46.40
2019-04-23T18:30:20.411Z,46.50
2019-04-23T18:33:44.654Z,46.80
2019-04-23T18:35:29.922Z,47.40
2019-04-23T18:38:14.616Z,47.70
2019-04-23T18:40:58.207Z,48.10
2019-04-23T18:43:13.816Z,48.80
2019-04-23T18:48:27.476Z,48.60
2019-04-23T18:50:53.472Z,48.60
2019-04-23T18:53:26.842Z,48.90
2019-04-23T18:58:09.585Z,49.00
2019-04-23T19:00:55.075Z,50.10
2019-04-23T19:03:21.021Z,49.30
2019-04-23T19:06:01.133Z,49.30
2019-04-23T19:08:51.901Z,49.90
2019-04-23T19:11:13.707Z,50.50
2019-04-23T19:13:46.011Z,50.20
2019-04-23T19:16:20.315Z,50.70
2019-04-23T19:18:49.258Z,50.80
2019-04-23T19:23:51.078Z,50.90
2019-04-23T19:26:41.745Z,51.70
2019-04-23T19:31:27.599Z,51.60
2019-04-23T19:36:49.284Z,51.80
2019-04-23T19:39:17.596Z,51.90
2019-04-23T19:41:59.508Z,52.60
2019-04-23T19:44:08.553Z,52.80
2019-04-23T19:49:09.932Z,53.30
2019-04-23T19:51:44.606Z,53.20
2019-04-23T19:54:17.177Z,53.80
2019-04-23T19:56:51.254Z,53.30
2019-04-23T19:59:18.501Z,53.20
2019-04-23T20:01:53.350Z,53.50
2019-04-23T20:04:07.952Z,53.70
2019-04-23T20:09:30.897Z,54.60
2019-04-23T20:11:53.057Z,54.20
2019-04-23T20:14:12.162Z,54.60
2019-04-23T20:17:18.855Z,54.80
2019-04-23T20:19:18.527Z,54.80
2019-04-23T20:21:54.908Z,55.10
2019-04-23T20:26:50.390Z,55.20
2019-04-23T20:29:54.629Z,55.50
2019-04-23T20:37:13.670Z,57.20
2019-04-23T20:39:59.952Z,56.80
2019-04-23T20:42:20.348Z,57.00
2019-04-23T20:44:53.512Z,57.20
2019-04-23T20:52:10.371Z,57.70
2019-04-23T20:54:58.443Z,57.90
2019-04-23T21:05:21.660Z,59.30
2019-04-23T21:07:59.327Z,59.20
2019-04-23T21:13:09.301Z,59.50
2019-04-23T21:15:35.327Z,60.20
2019-04-23T21:18:10.333Z,60.60
2019-04-23T21:20:35.436Z,61.00
2019-04-23T21:23:06.732Z,60.70
2019-04-23T21:25:31.823Z,62.20
2019-04-23T21:33:24.552Z,63.10
2019-04-23T21:39:08.684Z,64.90
2019-04-23T21:41:44.798Z,65.20
2019-04-23T21:46:40.253Z,68.80
2019-04-23T21:51:46.350Z,70.20
2019-04-23T21:54:13.230Z,70.00
2019-04-23T21:56:48.613Z,70.30
2019-04-23T22:04:17.351Z,73.80
2019-04-23T22:06:43.290Z,76.20
2019-04-23T22:11:57.018Z,76.80
2019-04-23T22:14:10.253Z,77.40
2019-04-23T22:21:47.164Z,82.20
2019-04-23T22:24:19.769Z,83.30
2019-04-23T22:26:37.850Z,83.70
2019-04-23T22:29:26.134Z,83.80
2019-04-23T22:31:47.160Z,85.80
2019-04-23T22:34:17.079Z,86.80
2019-04-23T22:36:51.763Z,86.70
2019-04-23T22:39:16.091Z,85.70
2019-04-23T22:41:54.648Z,86.10
2019-04-23T22:44:12.110Z,87.50
2019-04-23T22:46:53.652Z,90.10
2019-04-23T22:49:23.134Z,88.70
2019-04-23T23:01:53.408Z,91.70
2019-04-23T23:04:40.940Z,91.50
2019-04-23T23:11:54.295Z,92.20
2019-04-23T23:16:54.838Z,93.40
2019-04-23T23:19:28.451Z,93.20
2019-04-23T23:24:21.548Z,93.90
2019-04-23T23:29:19.605Z,94.90
2019-04-23T23:32:02.215Z,94.70
2019-04-23T23:34:27.835Z,94.90
2019-04-23T23:37:05.435Z,95.20
2019-04-23T23:39:28.778Z,96.20
2019-04-23T23:44:33.530Z,96.30
2019-04-23T23:47:03.079Z,96.10
2019-04-23T23:49:28.424Z,96.70
2019-04-23T23:52:03.278Z,96.80
2019-04-23T23:54:30.886Z,96.40
2019-04-23T23:59:24.681Z,96.30
